createdAt,value
2018-03-14T00:00:19.223Z,96.50
2018-03-14T00:02:45.308Z,96.40
2018-03-14T00:05:12.124Z,96.60
2018-03-14T00:07:38.211Z,96.60
2018-03-14T00:10:04.296Z,96.60
2018-03-14T00:12:30.393Z,96.50
2018-03-14T00:14:56.471Z,96.50
2018-03-14T00:17:22.540Z,96.50
2018-03-14T00:19:49.356Z,96.40
2018-03-14T00:22:30.560Z,96.40
2018-03-14T00:24:56.628Z,96.80
2018-03-14T00:27:23.443Z,96.90
2018-03-14T00:29:49.507Z,96.90
2018-03-14T00:32:15.649Z,96.80
2018-03-14T00:34:41.719Z,96.80
2018-03-14T00:37:07.799Z,96.80
2018-03-14T00:39:33.880Z,96.80
2018-03-14T00:42:00.692Z,96.60
2018-03-14T00:44:26.759Z,96.60
2018-03-14T00:46:53.587Z,97.00
2018-03-14T00:49:19.658Z,96.80
2018-03-14T00:51:46.488Z,96.80
2018-03-14T00:54:12.551Z,96.80
2018-03-14T00:56:39.360Z,97.10
2018-03-14T00:59:05.444Z,97.00
2018-03-14T01:01:32.278Z,97.00
2018-03-14T01:03:58.360Z,97.00
2018-03-14T01:06:24.443Z,97.10
2018-03-14T01:08:50.535Z,97.20
2018-03-14T01:13:53.065Z,97.00
2018-03-14T01:16:19.157Z,97.10
2018-03-14T01:18:45.232Z,97.00
2018-03-14T01:21:11.389Z,97.00
2018-03-14T01:23:37.400Z,97.00
2018-03-14T01:26:03.488Z,96.90
2018-03-14T01:28:29.562Z,96.80
2018-03-14T01:30:56.396Z,96.60
2018-03-14T01:33:22.472Z,96.60
2018-03-14T01:35:48.572Z,96.60
2018-03-14T01:38:14.669Z,96.60
2018-03-14T01:40:40.846Z,96.50
2018-03-14T01:43:06.908Z,96.50
2018-03-14T01:45:33.727Z,96.60
2018-03-14T01:47:59.820Z,96.50
2018-03-14T01:50:25.887Z,96.40
2018-03-14T01:55:47.788Z,96.30
2018-03-14T01:58:15.837Z,96.10
2018-03-14T02:00:43.880Z,96.00
2018-03-14T02:03:12.700Z,96.50
2018-03-14T02:05:40.753Z,96.40
2018-03-14T02:08:08.796Z,96.50
2018-03-14T02:10:36.832Z,96.60
2018-03-14T02:13:05.663Z,96.10
2018-03-14T02:15:33.704Z,96.10
2018-03-14T02:18:02.510Z,96.40
2018-03-14T02:20:31.325Z,96.20
2018-03-14T02:22:59.388Z,96.20
2018-03-14T02:25:27.421Z,96.10
2018-03-14T02:27:55.472Z,96.30
2018-03-14T02:30:24.278Z,96.70
2018-03-14T02:32:53.094Z,96.80
2018-03-14T02:35:21.127Z,96.80
2018-03-14T02:37:49.182Z,96.70
2018-03-14T02:40:17.233Z,96.70
2018-03-14T02:42:45.276Z,96.60
2018-03-14T02:45:13.329Z,96.50
2018-03-14T02:47:41.400Z,96.60
2018-03-14T02:50:09.436Z,96.70
2018-03-14T02:52:38.985Z,96.90
2018-03-14T02:55:07.804Z,96.80
2018-03-14T02:57:35.848Z,96.80
2018-03-14T03:00:04.028Z,97.10
2018-03-14T03:02:32.080Z,97.00
2018-03-14T03:05:00.120Z,97.00
2018-03-14T03:07:28.941Z,97.30
2018-03-14T03:09:56.980Z,97.30
2018-03-14T03:12:25.021Z,97.40
2018-03-14T03:14:53.069Z,97.40
2018-03-14T03:17:21.892Z,97.50
2018-03-14T03:19:49.945Z,97.50
2018-03-14T03:22:17.996Z,97.60
2018-03-14T03:24:46.044Z,97.40
2018-03-14T03:27:14.856Z,97.40
2018-03-14T03:29:42.897Z,97.50
2018-03-14T03:32:10.957Z,97.20
2018-03-14T03:34:38.999Z,97.10
2018-03-14T03:37:07.821Z,97.20
2018-03-14T03:39:35.860Z,97.20
2018-03-14T03:42:03.925Z,97.10
2018-03-14T03:44:31.965Z,97.00
2018-03-14T03:47:00.050Z,97.10
2018-03-14T03:49:28.093Z,97.30
2018-03-14T03:51:56.216Z,97.30
2018-03-14T03:54:24.305Z,97.30
2018-03-14T03:56:52.356Z,97.30
2018-03-14T03:59:21.165Z,97.40
2018-03-14T04:01:49.990Z,97.40
2018-03-14T04:04:18.077Z,97.40
2018-03-14T04:06:46.130Z,97.20
2018-03-14T04:09:14.156Z,97.20
2018-03-14T04:11:42.225Z,97.10
2018-03-14T04:14:10.270Z,97.10
2018-03-14T04:16:38.308Z,97.00
2018-03-14T04:19:06.364Z,96.90
2018-03-14T04:21:35.184Z,97.10
2018-03-14T04:24:03.998Z,97.20
2018-03-14T04:26:32.033Z,97.20
2018-03-14T04:29:00.889Z,97.30
2018-03-14T04:31:28.926Z,97.30
2018-03-14T04:33:57.736Z,96.50
2018-03-14T04:36:26.552Z,96.90
2018-03-14T04:38:54.620Z,96.90
2018-03-14T04:41:23.428Z,96.50
2018-03-14T04:43:52.242Z,96.10
2018-03-14T04:46:20.290Z,96.10
2018-03-14T04:48:48.337Z,96.60
2018-03-14T04:51:16.389Z,97.00
2018-03-14T04:53:44.429Z,96.80
2018-03-14T04:56:12.485Z,96.60
2018-03-14T04:58:40.537Z,96.80
2018-03-14T05:01:09.357Z,96.80
2018-03-14T05:03:37.405Z,96.70
2018-03-14T05:06:05.458Z,96.50
2018-03-14T05:08:33.538Z,95.90
2018-03-14T05:11:01.577Z,95.90
2018-03-14T05:13:30.396Z,96.40
2018-03-14T05:15:58.438Z,96.40
2018-03-14T05:18:26.488Z,96.70
2018-03-14T05:20:54.680Z,96.80
2018-03-14T05:23:22.748Z,96.10
2018-03-14T05:25:50.788Z,96.80
2018-03-14T05:28:19.594Z,97.00
2018-03-14T05:30:48.400Z,96.90
2018-03-14T05:33:17.212Z,97.20
2018-03-14T05:35:46.026Z,97.10
2018-03-14T05:38:14.061Z,97.00
2018-03-14T05:40:42.123Z,97.00
2018-03-14T05:43:10.157Z,97.00
2018-03-14T05:45:38.963Z,97.10
2018-03-14T05:48:07.772Z,97.00
2018-03-14T05:50:36.009Z,97.00
2018-03-14T05:53:04.061Z,97.10
2018-03-14T05:55:32.093Z,97.30
2018-03-14T05:58:00.149Z,97.30
2018-03-14T06:00:28.206Z,97.60
2018-03-14T06:02:56.262Z,97.60
2018-03-14T06:05:25.103Z,97.20
2018-03-14T06:07:53.888Z,97.30
2018-03-14T06:10:21.929Z,97.30
2018-03-14T06:12:50.109Z,97.50
2018-03-14T06:15:18.157Z,97.50
2018-03-14T06:17:46.212Z,97.50
2018-03-14T06:20:15.035Z,97.60
2018-03-14T06:22:43.069Z,97.60
2018-03-14T06:25:11.131Z,97.50
2018-03-14T06:27:39.186Z,97.70
2018-03-14T06:30:07.227Z,97.60
2018-03-14T06:32:35.260Z,97.60
2018-03-14T06:35:03.302Z,97.60
2018-03-14T06:37:32.121Z,97.80
2018-03-14T06:40:00.924Z,97.40
2018-03-14T06:42:29.752Z,97.60
2018-03-14T06:44:57.790Z,97.90
2018-03-14T06:47:25.844Z,97.30
2018-03-14T06:49:53.898Z,97.30
2018-03-14T06:52:21.941Z,97.30
2018-03-14T06:54:51.496Z,97.10
2018-03-14T06:57:19.538Z,97.00
2018-03-14T07:00:06.785Z,97.30
2018-03-14T07:02:45.712Z,97.30
2018-03-14T07:05:31.542Z,96.60
2018-03-14T07:08:00.351Z,96.90
2018-03-14T07:10:29.174Z,95.60
2018-03-14T07:12:57.212Z,95.60
2018-03-14T07:15:25.265Z,94.70
2018-03-14T07:17:53.368Z,94.40
2018-03-14T07:20:21.424Z,93.80
2018-03-14T07:22:49.465Z,93.80
2018-03-14T07:25:18.284Z,93.70
2018-03-14T07:27:46.325Z,93.70
2018-03-14T07:30:14.381Z,94.00
2018-03-14T07:32:42.444Z,93.60
2018-03-14T07:35:10.486Z,93.00
2018-03-14T07:37:38.540Z,92.80
2018-03-14T07:40:06.582Z,93.70
2018-03-14T07:42:35.398Z,92.90
2018-03-14T07:45:03.440Z,92.90
2018-03-14T07:47:31.506Z,92.80
2018-03-14T07:49:59.550Z,92.70
2018-03-14T07:52:27.588Z,91.90
2018-03-14T07:54:55.641Z,93.10
2018-03-14T07:57:23.681Z,92.50
2018-03-14T07:59:52.505Z,92.30
2018-03-14T08:02:20.557Z,92.30
2018-03-14T08:04:49.366Z,91.90
2018-03-14T08:07:18.185Z,92.50
2018-03-14T08:09:46.225Z,92.50
2018-03-14T08:12:14.290Z,92.20
2018-03-14T08:14:42.324Z,92.20
2018-03-14T08:17:11.129Z,91.70
2018-03-14T08:19:39.948Z,92.00
2018-03-14T08:22:07.985Z,92.00
2018-03-14T08:24:36.052Z,91.60
2018-03-14T08:27:04.091Z,91.30
2018-03-14T08:29:32.129Z,91.20
2018-03-14T08:32:00.185Z,91.10
2018-03-14T08:34:28.336Z,92.10
2018-03-14T08:36:56.276Z,91.60
2018-03-14T08:39:24.316Z,92.10
2018-03-14T08:41:52.431Z,91.70
2018-03-14T08:44:20.469Z,92.80
2018-03-14T08:46:49.335Z,91.30
2018-03-14T08:49:17.320Z,91.30
2018-03-14T08:51:45.385Z,91.30
2018-03-14T08:54:13.435Z,90.20
2018-03-14T08:56:41.478Z,90.70
2018-03-14T08:59:09.529Z,90.30
2018-03-14T09:01:37.569Z,90.50
2018-03-14T09:04:06.392Z,90.10
2018-03-14T09:06:34.429Z,90.00
2018-03-14T09:09:02.481Z,90.30
2018-03-14T09:11:30.537Z,89.10
2018-03-14T09:13:59.336Z,87.00
2018-03-14T09:16:27.407Z,87.10
2018-03-14T09:18:56.207Z,86.60
2018-03-14T09:21:25.041Z,85.40
2018-03-14T09:23:53.892Z,85.70
2018-03-14T09:26:22.714Z,85.40
2018-03-14T09:28:51.537Z,87.80
2018-03-14T09:31:19.589Z,87.70
2018-03-14T09:33:49.479Z,88.90
2018-03-14T09:36:17.521Z,89.60
2018-03-14T09:38:46.332Z,88.50
2018-03-14T09:41:14.376Z,88.50
2018-03-14T09:43:42.467Z,87.50
2018-03-14T09:46:10.501Z,83.10
2018-03-14T09:48:38.592Z,84.40
2018-03-14T09:51:06.685Z,84.20
2018-03-14T09:53:34.729Z,78.60
2018-03-14T09:56:03.550Z,82.90
2018-03-14T09:58:31.612Z,82.90
2018-03-14T10:01:00.412Z,83.30
2018-03-14T10:03:29.227Z,85.10
2018-03-14T10:05:58.052Z,85.10
2018-03-14T10:08:26.093Z,85.20
2018-03-14T10:10:54.132Z,82.40
2018-03-14T10:13:22.184Z,84.90
2018-03-14T10:15:50.232Z,85.80
2018-03-14T10:18:18.284Z,81.70
2018-03-14T10:20:46.333Z,82.80
2018-03-14T10:23:14.394Z,82.80
2018-03-14T10:25:42.555Z,80.40
2018-03-14T10:28:10.509Z,79.50
2018-03-14T10:30:38.547Z,79.40
2018-03-14T10:33:07.369Z,77.70
2018-03-14T10:35:36.177Z,78.30
2018-03-14T10:38:04.244Z,78.20
2018-03-14T10:40:33.048Z,79.50
2018-03-14T10:43:01.880Z,76.20
2018-03-14T10:45:29.922Z,76.20
2018-03-14T10:47:57.992Z,73.90
2018-03-14T10:50:26.804Z,71.50
2018-03-14T10:52:54.877Z,71.50
2018-03-14T10:55:22.941Z,74.50
2018-03-14T10:57:50.985Z,67.60
2018-03-14T11:00:24.741Z,67.80
2018-03-14T11:02:52.803Z,67.80
2018-03-14T11:05:20.856Z,70.40
2018-03-14T11:07:49.700Z,66.60
2018-03-14T11:10:18.501Z,66.40
2018-03-14T11:12:46.557Z,66.30
2018-03-14T11:15:15.385Z,67.30
2018-03-14T11:17:43.447Z,67.20
2018-03-14T11:20:12.273Z,60.70
2018-03-14T11:22:40.317Z,60.90
2018-03-14T11:25:09.157Z,64.60
2018-03-14T11:27:37.241Z,64.60
2018-03-14T11:30:05.281Z,60.80
2018-03-14T11:32:33.349Z,63.00
2018-03-14T11:35:01.402Z,62.80
2018-03-14T11:37:29.473Z,64.70
2018-03-14T11:39:57.520Z,63.60
2018-03-14T11:42:26.399Z,67.20
2018-03-14T11:44:54.403Z,67.20
2018-03-14T11:47:22.450Z,70.20
2018-03-14T11:49:50.511Z,70.70
2018-03-14T11:52:18.561Z,70.20
2018-03-14T11:54:47.394Z,66.10
2018-03-14T11:57:15.469Z,65.70
2018-03-14T11:59:43.505Z,65.20
2018-03-14T12:02:11.557Z,66.10
2018-03-14T12:04:39.638Z,66.10
2018-03-14T12:07:07.681Z,64.10
2018-03-14T12:09:35.729Z,62.00
2018-03-14T12:12:03.801Z,58.90
2018-03-14T12:14:31.854Z,60.80
2018-03-14T12:17:00.676Z,63.70
2018-03-14T12:19:28.725Z,63.50
2018-03-14T12:21:57.557Z,62.20
2018-03-14T12:24:25.607Z,62.10
2018-03-14T12:26:53.655Z,64.60
2018-03-14T12:29:21.702Z,66.00
2018-03-14T12:31:49.809Z,61.80
2018-03-14T12:34:17.844Z,59.60
2018-03-14T12:36:45.907Z,58.70
2018-03-14T12:39:13.976Z,57.40
2018-03-14T12:41:42.040Z,59.80
2018-03-14T12:44:10.102Z,60.70
2018-03-14T12:46:38.928Z,63.20
2018-03-14T12:49:06.993Z,59.80
2018-03-14T12:51:35.040Z,60.10
2018-03-14T12:54:03.133Z,59.70
2018-03-14T12:56:31.141Z,61.10
2018-03-14T12:58:59.209Z,59.20
2018-03-14T13:01:28.021Z,59.20
2018-03-14T13:03:56.853Z,57.70
2018-03-14T13:06:24.908Z,57.10
2018-03-14T13:08:53.793Z,61.90
2018-03-14T13:11:21.824Z,61.70
2018-03-14T13:13:49.888Z,58.50
2018-03-14T13:16:18.713Z,60.80
2018-03-14T13:18:46.760Z,60.80
2018-03-14T13:21:15.593Z,58.20
2018-03-14T13:23:43.644Z,58.20
2018-03-14T13:26:12.467Z,57.90
2018-03-14T13:28:40.518Z,57.80
2018-03-14T13:31:08.592Z,56.70
2018-03-14T13:33:36.632Z,58.00
2018-03-14T13:36:04.680Z,59.00
2018-03-14T13:38:32.736Z,56.90
2018-03-14T13:41:00.800Z,56.80
2018-03-14T13:43:28.861Z,56.00
2018-03-14T13:45:56.905Z,56.00
2018-03-14T13:48:24.960Z,55.00
2018-03-14T13:50:53.019Z,56.80
2018-03-14T13:53:21.068Z,57.90
2018-03-14T13:55:49.116Z,58.10
2018-03-14T13:58:17.206Z,56.60
2018-03-14T14:00:45.217Z,54.10
2018-03-14T14:03:13.298Z,53.40
2018-03-14T14:05:41.408Z,54.20
2018-03-14T14:08:10.216Z,54.10
2018-03-14T14:10:38.555Z,54.10
2018-03-14T14:13:06.881Z,54.20
2018-03-14T14:15:35.704Z,52.90
2018-03-14T14:18:03.744Z,52.90
2018-03-14T14:20:31.801Z,53.90
2018-03-14T14:22:59.873Z,52.50
2018-03-14T14:25:28.019Z,54.10
2018-03-14T14:27:56.082Z,54.00
2018-03-14T14:30:24.157Z,54.10
2018-03-14T14:32:52.201Z,52.70
2018-03-14T14:35:20.245Z,54.20
2018-03-14T14:37:48.317Z,53.30
2018-03-14T14:40:16.386Z,55.30
2018-03-14T14:42:44.428Z,54.60
2018-03-14T14:45:12.493Z,54.40
2018-03-14T14:47:41.316Z,57.80
2018-03-14T14:50:09.388Z,57.90
2018-03-14T14:52:38.224Z,56.90
2018-03-14T14:55:06.270Z,56.80
2018-03-14T14:57:35.101Z,57.60
2018-03-14T15:00:03.161Z,57.60
2018-03-14T15:02:31.977Z,58.60
2018-03-14T15:05:00.049Z,58.60
2018-03-14T15:07:28.861Z,56.50
2018-03-14T15:09:56.915Z,56.50
2018-03-14T15:12:24.977Z,57.30
2018-03-14T15:14:53.045Z,57.20
2018-03-14T15:17:21.084Z,57.60
2018-03-14T15:19:49.921Z,58.20
2018-03-14T15:22:17.994Z,58.20
2018-03-14T15:24:46.045Z,59.50
2018-03-14T15:27:14.118Z,58.00
2018-03-14T15:29:42.275Z,59.50
2018-03-14T15:32:10.261Z,60.50
2018-03-14T15:34:38.301Z,59.40
2018-03-14T15:37:07.140Z,58.30
2018-03-14T15:39:35.189Z,58.40
2018-03-14T15:42:04.017Z,57.20
2018-03-14T15:44:32.090Z,57.30
2018-03-14T15:47:00.133Z,57.90
2018-03-14T15:49:28.205Z,58.50
2018-03-14T15:51:56.245Z,57.10
2018-03-14T15:54:24.323Z,56.90
2018-03-14T15:56:53.128Z,56.90
2018-03-14T15:59:21.177Z,56.90
2018-03-14T16:01:49.241Z,57.70
2018-03-14T16:04:17.284Z,59.00
2018-03-14T16:06:45.383Z,58.40
2018-03-14T16:09:14.192Z,58.40
2018-03-14T16:11:42.236Z,58.40
2018-03-14T16:14:11.054Z,60.00
2018-03-14T16:16:39.120Z,59.90
2018-03-14T16:19:07.167Z,61.50
2018-03-14T16:21:35.225Z,60.10
2018-03-14T16:24:03.273Z,60.30
2018-03-14T16:26:32.105Z,60.70
2018-03-14T16:29:00.147Z,60.70
2018-03-14T16:31:28.990Z,63.70
2018-03-14T16:33:57.052Z,62.80
2018-03-14T16:36:25.129Z,62.20
2018-03-14T16:38:53.941Z,63.80
2018-03-14T16:41:22.020Z,63.70
2018-03-14T16:43:50.848Z,62.90
2018-03-14T16:46:18.896Z,63.00
2018-03-14T16:48:47.740Z,65.20
2018-03-14T16:51:15.796Z,65.10
2018-03-14T16:53:44.596Z,65.40
2018-03-14T16:56:13.429Z,65.30
2018-03-14T16:58:41.516Z,65.20
2018-03-14T17:01:09.574Z,66.20
2018-03-14T17:03:37.641Z,64.50
2018-03-14T17:06:06.448Z,65.80
2018-03-14T17:08:35.281Z,68.00
2018-03-14T17:11:03.341Z,68.00
2018-03-14T17:13:31.388Z,68.00
2018-03-14T17:15:59.432Z,68.30
2018-03-14T17:18:27.465Z,69.60
2018-03-14T17:20:55.524Z,68.70
2018-03-14T17:23:23.569Z,69.40
2018-03-14T17:25:51.666Z,69.00
2018-03-14T17:28:19.690Z,69.90
2018-03-14T17:30:47.731Z,71.00
2018-03-14T17:33:15.793Z,70.90
2018-03-14T17:35:44.613Z,71.30
2018-03-14T17:38:12.656Z,71.20
2018-03-14T17:40:40.712Z,72.60
2018-03-14T17:43:08.783Z,74.10
2018-03-14T17:45:36.804Z,74.60
2018-03-14T17:48:04.864Z,75.60
2018-03-14T17:50:32.912Z,75.50
2018-03-14T17:53:00.944Z,76.00
2018-03-14T17:55:29.005Z,76.70
2018-03-14T17:57:57.040Z,77.00
2018-03-14T18:00:25.885Z,77.60
2018-03-14T18:02:53.924Z,76.80
2018-03-14T18:05:22.731Z,76.90
2018-03-14T18:07:51.552Z,77.60
2018-03-14T18:10:19.592Z,76.90
2018-03-14T18:12:47.652Z,76.90
2018-03-14T18:15:15.716Z,77.10
2018-03-14T18:17:44.497Z,77.60
2018-03-14T18:20:13.339Z,77.40
2018-03-14T18:22:41.384Z,77.40
2018-03-14T18:25:10.194Z,77.80
2018-03-14T18:27:38.292Z,77.80
2018-03-14T18:30:06.588Z,78.00
2018-03-14T18:32:34.648Z,77.80
2018-03-14T18:35:02.691Z,78.80
2018-03-14T18:37:30.742Z,78.60
2018-03-14T18:39:58.791Z,78.90
2018-03-14T18:42:27.592Z,79.80
2018-03-14T18:44:56.413Z,79.90
2018-03-14T18:47:24.453Z,79.80
2018-03-14T18:49:52.504Z,79.70
2018-03-14T18:52:20.557Z,80.20
2018-03-14T18:54:49.365Z,79.70
2018-03-14T18:57:18.190Z,80.70
2018-03-14T18:59:46.403Z,80.70
2018-03-14T19:02:14.397Z,81.30
2018-03-14T19:04:42.465Z,81.60
2018-03-14T19:07:10.488Z,82.10
2018-03-14T19:09:39.293Z,82.10
2018-03-14T19:12:08.120Z,81.50
2018-03-14T19:14:36.158Z,81.40
2018-03-14T19:17:04.214Z,81.90
2018-03-14T19:19:32.350Z,81.90
2018-03-14T19:22:00.357Z,81.60
2018-03-14T19:24:28.408Z,81.60
2018-03-14T19:26:56.456Z,81.40
2018-03-14T19:29:24.492Z,81.90
2018-03-14T19:31:53.321Z,81.60
2018-03-14T19:34:21.361Z,81.60
2018-03-14T19:36:49.421Z,81.20
2018-03-14T19:39:17.456Z,80.90
2018-03-14T19:41:45.515Z,80.60
2018-03-14T19:44:13.578Z,80.30
2018-03-14T19:46:41.604Z,80.70
2018-03-14T19:49:09.649Z,80.40
2018-03-14T19:51:37.704Z,80.70
2018-03-14T19:54:05.750Z,80.50
2018-03-14T19:56:34.564Z,80.80
2018-03-14T19:59:02.652Z,80.80
2018-03-14T20:01:30.686Z,80.90
2018-03-14T20:03:58.733Z,80.30
2018-03-14T20:06:26.785Z,80.60
2018-03-14T20:08:55.644Z,80.50
2018-03-14T20:11:24.413Z,80.30
2018-03-14T20:13:52.453Z,80.30
2018-03-14T20:16:20.496Z,80.10
2018-03-14T20:18:48.568Z,80.40
2018-03-14T20:21:16.612Z,80.60
2018-03-14T20:23:44.656Z,80.60
2018-03-14T20:26:12.726Z,80.70
2018-03-14T20:28:40.761Z,80.00
2018-03-14T20:31:08.805Z,80.20
2018-03-14T20:33:36.852Z,81.00
2018-03-14T20:36:05.656Z,80.00
2018-03-14T20:38:33.713Z,80.00
2018-03-14T20:41:01.768Z,80.00
2018-03-14T20:43:29.812Z,79.40
2018-03-14T20:45:57.905Z,79.40
2018-03-14T20:48:25.941Z,79.90
2018-03-14T20:50:53.996Z,79.60
2018-03-14T20:53:22.064Z,79.80
2018-03-14T20:55:50.140Z,79.80
2018-03-14T20:58:18.177Z,79.20
2018-03-14T21:00:46.237Z,79.60
2018-03-14T21:03:14.281Z,79.60
2018-03-14T21:05:42.339Z,79.80
2018-03-14T21:08:10.411Z,79.80
2018-03-14T21:10:38.451Z,78.70
2018-03-14T21:13:06.530Z,79.30
2018-03-14T21:15:34.576Z,79.20
2018-03-14T21:18:03.404Z,79.80
2018-03-14T21:20:32.200Z,80.00
2018-03-14T21:23:01.023Z,79.90
2018-03-14T21:25:29.068Z,79.80
2018-03-14T21:27:57.190Z,80.10
2018-03-14T21:30:25.236Z,79.90
2018-03-14T21:32:53.276Z,79.90
2018-03-14T21:35:21.317Z,80.00
2018-03-14T21:37:50.136Z,80.20
2018-03-14T21:40:18.180Z,80.20
2018-03-14T21:42:46.226Z,80.00
2018-03-14T21:45:14.281Z,80.90
2018-03-14T21:47:43.081Z,79.90
2018-03-14T21:50:11.900Z,80.30
2018-03-14T21:52:39.944Z,80.30
2018-03-14T21:55:07.993Z,79.80
2018-03-14T21:57:36.033Z,79.70
2018-03-14T22:00:04.853Z,79.30
2018-03-14T22:02:32.896Z,79.20
2018-03-14T22:05:01.034Z,79.00
2018-03-14T22:07:29.073Z,78.90
2018-03-14T22:09:57.113Z,78.70
2018-03-14T22:12:25.153Z,78.90
2018-03-14T22:14:53.997Z,78.40
2018-03-14T22:17:22.037Z,78.40
2018-03-14T22:19:50.856Z,77.60
2018-03-14T22:22:18.899Z,77.60
2018-03-14T22:24:46.932Z,77.80
2018-03-14T22:27:14.990Z,77.50
2018-03-14T22:29:43.792Z,76.20
2018-03-14T22:32:12.612Z,76.00
2018-03-14T22:34:40.657Z,75.90
2018-03-14T22:37:08.755Z,75.40
2018-03-14T22:39:36.746Z,76.10
2018-03-14T22:42:05.549Z,75.80
2018-03-14T22:44:34.373Z,76.20
2018-03-14T22:47:02.465Z,76.10
2018-03-14T22:49:30.474Z,76.30
2018-03-14T22:51:58.504Z,75.50
2018-03-14T22:54:27.326Z,75.80
2018-03-14T22:56:55.363Z,75.70
2018-03-14T22:59:23.421Z,76.00
2018-03-14T23:01:51.460Z,75.50
2018-03-14T23:04:20.276Z,75.50
2018-03-14T23:06:48.337Z,75.60
2018-03-14T23:09:17.144Z,75.40
2018-03-14T23:11:46.068Z,74.90
2018-03-14T23:14:14.124Z,74.90
2018-03-14T23:16:42.959Z,75.80
2018-03-14T23:19:11.764Z,75.30
2018-03-14T23:21:39.815Z,75.30
2018-03-14T23:24:08.667Z,75.60
2018-03-14T23:26:36.701Z,75.60
2018-03-14T23:29:05.632Z,75.90
2018-03-14T23:31:33.688Z,75.90
2018-03-14T23:34:02.512Z,75.40
2018-03-14T23:36:30.557Z,75.30
2018-03-14T23:39:00.116Z,75.60
2018-03-14T23:41:28.162Z,75.60
2018-03-14T23:43:56.229Z,74.70
2018-03-14T23:46:24.269Z,75.70
2018-03-14T23:48:52.313Z,75.40
2018-03-14T23:51:20.384Z,75.30
2018-03-14T23:53:48.436Z,75.90
2018-03-14T23:56:16.464Z,75.30
2018-03-14T23:58:44.525Z,76.10
